createdAt,value
2022-11-28T00:01:43.546Z,55.00
2022-11-28T00:04:11.356Z,55.00
2022-11-28T00:06:40.091Z,54.90
2022-11-28T00:09:07.267Z,55.00
2022-11-28T00:11:34.077Z,55.00
2022-11-28T00:14:00.783Z,55.00
2022-11-28T00:16:28.944Z,54.80
2022-11-28T00:18:56.016Z,55.00
2022-11-28T00:21:23.221Z,55.00
2022-11-28T00:23:50.629Z,54.90
2022-11-28T00:26:19.776Z,54.90
2022-11-28T00:28:46.787Z,54.90
2022-11-28T00:31:14.520Z,54.90
2022-11-28T00:33:42.803Z,54.80
2022-11-28T00:36:10.175Z,54.80
2022-11-28T00:38:37.654Z,54.90
2022-11-28T00:41:06.441Z,54.90
2022-11-28T00:43:34.079Z,54.90
2022-11-28T00:46:01.038Z,54.90
2022-11-28T00:48:27.868Z,54.90
2022-11-28T00:51:04.865Z,54.80
2022-11-28T00:53:31.618Z,54.80
2022-11-28T00:55:58.389Z,54.80
2022-11-28T00:58:25.188Z,54.90
2022-11-28T01:00:52.084Z,54.90
2022-11-28T01:03:18.891Z,55.00
2022-11-28T01:05:45.814Z,54.90
2022-11-28T01:08:13.958Z,54.90
2022-11-28T01:10:41.183Z,55.00
2022-11-28T01:13:08.162Z,54.80
2022-11-28T01:15:35.279Z,54.80
2022-11-28T01:18:02.246Z,54.80
2022-11-28T01:20:29.416Z,54.70
2022-11-28T01:22:56.242Z,54.70
2022-11-28T01:25:24.437Z,54.80
2022-11-28T01:27:51.407Z,54.80
2022-11-28T01:30:18.401Z,54.70
2022-11-28T01:32:45.179Z,54.70
2022-11-28T01:35:12.066Z,54.80
2022-11-28T01:37:38.808Z,54.60
2022-11-28T01:40:06.978Z,54.60
2022-11-28T01:42:35.097Z,54.60
2022-11-28T01:45:07.027Z,54.60
2022-11-28T01:47:34.587Z,54.70
2022-11-28T01:50:03.001Z,54.70
2022-11-28T01:52:29.808Z,54.80
2022-11-28T01:55:01.650Z,54.70
2022-11-28T01:57:28.905Z,54.60
2022-11-28T02:00:01.880Z,54.70
2022-11-28T02:02:34.781Z,54.70
2022-11-28T02:05:02.006Z,54.60
2022-11-28T02:07:28.919Z,54.80
2022-11-28T02:09:55.739Z,54.70
2022-11-28T02:12:34.586Z,54.70
2022-11-28T02:15:14.363Z,54.70
2022-11-28T02:17:55.410Z,54.80
2022-11-28T02:20:53.825Z,54.80
2022-11-28T02:23:26.127Z,54.80
2022-11-28T02:26:17.778Z,54.80
2022-11-28T02:29:38.721Z,54.80
2022-11-28T02:32:23.591Z,54.70
2022-11-28T02:34:58.564Z,55.00
2022-11-28T02:37:30.486Z,54.90
2022-11-28T02:40:07.489Z,54.80
2022-11-28T02:42:42.283Z,54.80
2022-11-28T02:45:12.873Z,54.80
2022-11-28T02:47:45.392Z,54.80
2022-11-28T02:50:17.910Z,54.80
2022-11-28T02:52:48.920Z,54.80
2022-11-28T02:55:16.846Z,54.70
2022-11-28T02:57:49.110Z,54.80
2022-11-28T03:00:28.685Z,54.80
2022-11-28T03:03:10.676Z,54.70
2022-11-28T03:05:43.492Z,54.70
2022-11-28T03:08:29.095Z,54.80
2022-11-28T03:11:03.162Z,54.70
2022-11-28T03:13:39.332Z,54.80
2022-11-28T03:16:20.811Z,54.70
2022-11-28T03:18:59.280Z,54.70
2022-11-28T03:21:38.361Z,54.80
2022-11-28T03:24:10.723Z,54.70
2022-11-28T03:26:44.712Z,54.80
2022-11-28T03:29:16.465Z,54.80
2022-11-28T03:31:49.370Z,54.70
2022-11-28T03:34:21.913Z,54.70
2022-11-28T03:36:53.630Z,54.60
2022-11-28T03:39:23.697Z,54.60
2022-11-28T03:41:54.985Z,54.80
2022-11-28T03:44:27.428Z,54.60
2022-11-28T03:46:57.107Z,54.60
2022-11-28T03:49:29.986Z,54.60
2022-11-28T03:52:01.638Z,54.60
2022-11-28T03:54:34.488Z,54.60
2022-11-28T03:57:08.983Z,54.60
2022-11-28T03:59:38.297Z,54.60
2022-11-28T04:02:12.081Z,54.70
2022-11-28T04:04:50.690Z,54.60
2022-11-28T04:07:27.283Z,54.60
2022-11-28T04:10:01.934Z,54.60
2022-11-28T04:12:37.007Z,54.80
2022-11-28T04:15:09.159Z,54.60
2022-11-28T04:17:43.182Z,54.60
2022-11-28T04:20:15.442Z,54.60
2022-11-28T04:22:46.242Z,54.60
2022-11-28T04:25:16.481Z,54.70
2022-11-28T04:27:48.488Z,54.60
2022-11-28T04:30:15.545Z,54.60
2022-11-28T04:32:46.472Z,54.60
2022-11-28T04:35:20.218Z,54.60
2022-11-28T04:37:48.018Z,54.60
2022-11-28T04:40:16.280Z,54.70
2022-11-28T04:42:52.480Z,54.60
2022-11-28T04:45:24.236Z,54.50
2022-11-28T04:47:51.195Z,54.50
2022-11-28T04:50:22.465Z,54.60
2022-11-28T04:52:56.012Z,54.60
2022-11-28T04:55:29.900Z,54.60
2022-11-28T04:58:02.542Z,54.60
2022-11-28T05:00:29.462Z,54.60
2022-11-28T05:02:56.755Z,54.70
2022-11-28T05:05:26.455Z,54.70
2022-11-28T05:07:53.449Z,54.60
2022-11-28T05:10:20.492Z,54.60
2022-11-28T05:12:47.307Z,54.60
2022-11-28T05:15:14.114Z,54.50
2022-11-28T05:17:42.595Z,54.60
2022-11-28T05:20:10.131Z,54.60
2022-11-28T05:22:38.216Z,54.50
2022-11-28T05:25:05.625Z,54.50
2022-11-28T05:27:32.357Z,54.50
2022-11-28T05:29:59.083Z,54.50
2022-11-28T05:32:28.570Z,54.50
2022-11-28T05:34:55.362Z,54.40
2022-11-28T05:37:22.168Z,54.60
2022-11-28T05:39:50.373Z,54.50
2022-11-28T05:42:17.254Z,54.50
2022-11-28T05:44:44.090Z,54.40
2022-11-28T05:47:10.835Z,55.10
2022-11-28T05:49:37.588Z,54.40
2022-11-28T05:52:04.690Z,54.60
2022-11-28T05:54:31.432Z,54.50
2022-11-28T05:56:59.571Z,54.50
2022-11-28T05:59:26.404Z,54.40
2022-11-28T06:01:53.205Z,54.40
2022-11-28T06:04:20.052Z,54.40
2022-11-28T06:06:49.574Z,54.50
2022-11-28T06:09:16.505Z,54.40
2022-11-28T06:11:43.398Z,54.50
2022-11-28T06:14:11.985Z,54.50
2022-11-28T06:16:38.791Z,54.40
2022-11-28T06:19:06.187Z,54.30
2022-11-28T06:21:33.640Z,54.60
2022-11-28T06:24:00.680Z,54.40
2022-11-28T06:26:28.319Z,54.40
2022-11-28T06:28:55.435Z,54.50
2022-11-28T06:31:25.274Z,54.30
2022-11-28T06:33:52.067Z,54.30
2022-11-28T06:36:20.137Z,54.40
2022-11-28T06:38:47.376Z,54.40
2022-11-28T06:41:16.578Z,54.40
2022-11-28T06:43:43.438Z,54.40
2022-11-28T06:46:15.915Z,54.50
2022-11-28T06:48:44.830Z,54.50
2022-11-28T06:51:12.009Z,54.40
2022-11-28T06:53:39.193Z,54.40
2022-11-28T06:56:07.166Z,54.60
2022-11-28T06:58:34.522Z,54.50
2022-11-28T07:01:07.141Z,54.40
2022-11-28T07:03:33.924Z,54.50
2022-11-28T07:06:02.820Z,54.50
2022-11-28T07:08:30.442Z,54.50
2022-11-28T07:10:57.263Z,54.50
2022-11-28T07:13:24.541Z,54.60
2022-11-28T07:15:51.838Z,54.50
2022-11-28T07:18:19.045Z,54.60
2022-11-28T07:20:45.793Z,54.40
2022-11-28T07:23:13.889Z,54.50
2022-11-28T07:25:40.616Z,54.50
2022-11-28T07:28:07.499Z,54.50
2022-11-28T07:30:34.256Z,54.50
2022-11-28T07:33:01.044Z,54.40
2022-11-28T07:35:27.834Z,54.40
2022-11-28T07:37:54.546Z,54.40
2022-11-28T07:40:22.630Z,54.40
2022-11-28T07:42:49.524Z,54.40
2022-11-28T07:45:16.442Z,54.50
2022-11-28T07:47:43.246Z,54.50
2022-11-28T07:50:10.134Z,54.50
2022-11-28T07:52:36.864Z,54.50
2022-11-28T07:55:04.134Z,54.40
2022-11-28T07:57:32.777Z,54.50
2022-11-28T07:59:59.541Z,54.50
2022-11-28T08:02:26.364Z,54.40
2022-11-28T08:04:55.334Z,54.50
2022-11-28T08:07:22.466Z,54.50
2022-11-28T08:09:51.287Z,54.50
2022-11-28T08:12:18.091Z,54.40
2022-11-28T08:14:46.298Z,54.40
2022-11-28T08:17:13.211Z,54.40
2022-11-28T08:19:39.967Z,54.40
2022-11-28T08:22:06.770Z,54.60
2022-11-28T08:24:33.536Z,54.50
2022-11-28T08:27:00.513Z,54.40
2022-11-28T08:29:27.225Z,54.50
2022-11-28T08:31:55.355Z,54.50
2022-11-28T08:34:22.161Z,54.40
2022-11-28T08:36:49.042Z,54.40
2022-11-28T08:39:24.150Z,54.30
2022-11-28T08:41:51.822Z,54.40
2022-11-28T08:44:18.677Z,54.40
2022-11-28T08:46:45.427Z,54.50
2022-11-28T08:49:13.554Z,54.20
2022-11-28T08:51:40.312Z,54.30
2022-11-28T08:54:07.221Z,54.40
2022-11-28T08:56:34.601Z,54.30
2022-11-28T08:59:01.358Z,54.30
2022-11-28T09:01:28.333Z,54.30
2022-11-28T09:03:56.143Z,54.30
2022-11-28T09:06:24.884Z,54.90
2022-11-28T09:08:52.614Z,54.20
2022-11-28T09:11:20.855Z,54.80
2022-11-28T09:13:48.090Z,54.10
2022-11-28T09:16:15.277Z,54.30
2022-11-28T09:18:42.265Z,54.20
2022-11-28T09:21:11.818Z,54.20
2022-11-28T09:23:41.678Z,54.10
2022-11-28T09:26:09.359Z,54.20
2022-11-28T09:28:36.417Z,54.80
2022-11-28T09:31:05.126Z,54.10
2022-11-28T09:33:32.759Z,54.10
2022-11-28T09:36:03.756Z,54.20
2022-11-28T09:38:30.529Z,54.10
2022-11-28T09:40:58.683Z,54.10
2022-11-28T09:43:30.853Z,54.10
2022-11-28T09:45:59.226Z,54.80
2022-11-28T09:48:33.677Z,54.10
2022-11-28T09:51:05.136Z,54.10
2022-11-28T09:53:39.176Z,54.00
2022-11-28T09:56:11.782Z,54.10
2022-11-28T09:58:43.408Z,54.10
2022-11-28T10:01:16.613Z,54.10
2022-11-28T10:03:51.640Z,54.10
2022-11-28T10:06:23.694Z,54.10
2022-11-28T10:09:21.199Z,54.20
2022-11-28T10:12:05.343Z,54.00
2022-11-28T10:15:07.964Z,54.10
2022-11-28T10:17:46.014Z,54.20
2022-11-28T10:20:18.638Z,54.20
2022-11-28T10:22:51.747Z,54.30
2022-11-28T10:25:22.132Z,54.30
2022-11-28T10:27:50.922Z,54.30
2022-11-28T10:30:22.472Z,54.40
2022-11-28T10:32:57.607Z,54.10
2022-11-28T10:35:30.530Z,54.20
2022-11-28T10:37:57.352Z,54.10
2022-11-28T10:40:31.423Z,54.20
2022-11-28T10:43:05.990Z,54.20
2022-11-28T10:45:46.180Z,54.30
2022-11-28T10:48:40.820Z,54.20
2022-11-28T10:51:28.632Z,54.20
2022-11-28T10:54:06.695Z,54.20
2022-11-28T10:56:43.315Z,54.50
2022-11-28T10:59:20.661Z,54.50
2022-11-28T11:01:50.472Z,54.50
2022-11-28T11:04:19.362Z,54.60
2022-11-28T11:07:08.262Z,54.30
2022-11-28T11:09:36.910Z,54.30
2022-11-28T11:12:07.247Z,54.40
2022-11-28T11:14:37.927Z,54.60
2022-11-28T11:17:04.708Z,54.60
2022-11-28T11:19:33.526Z,54.70
2022-11-28T11:22:03.334Z,54.60
2022-11-28T11:24:30.508Z,54.80
2022-11-28T11:27:04.975Z,54.60
2022-11-28T11:29:35.334Z,54.50
2022-11-28T11:32:03.457Z,54.60
2022-11-28T11:34:35.764Z,54.70
2022-11-28T11:37:18.721Z,54.60
2022-11-28T11:39:47.939Z,54.70
2022-11-28T11:42:20.851Z,54.80
2022-11-28T11:44:49.591Z,54.70
2022-11-28T11:47:16.414Z,54.00
2022-11-28T11:49:45.284Z,54.70
2022-11-28T11:52:20.857Z,53.80
2022-11-28T11:55:00.968Z,53.80
2022-11-28T11:57:33.873Z,53.70
2022-11-28T12:00:05.548Z,53.80
2022-11-28T12:02:36.099Z,53.70
2022-11-28T12:05:09.785Z,53.70
2022-11-28T12:07:42.516Z,53.60
2022-11-28T12:10:14.657Z,53.60
2022-11-28T12:12:41.590Z,53.60
2022-11-28T12:15:16.724Z,53.70
2022-11-28T12:17:59.148Z,53.60
2022-11-28T12:20:41.841Z,53.60
2022-11-28T12:23:18.321Z,53.60
2022-11-28T12:25:53.470Z,53.60
2022-11-28T12:28:37.036Z,53.60
2022-11-28T12:31:14.377Z,53.70
2022-11-28T12:33:52.341Z,53.60
2022-11-28T12:36:26.020Z,53.80
2022-11-28T12:39:00.349Z,53.70
2022-11-28T12:41:57.818Z,53.60
2022-11-28T12:44:37.506Z,53.60
2022-11-28T12:47:16.279Z,53.60
2022-11-28T12:49:52.972Z,53.70
2022-11-28T12:52:25.483Z,53.80
2022-11-28T12:55:02.758Z,53.60
2022-11-28T12:57:37.316Z,53.70
2022-11-28T13:00:09.981Z,53.60
2022-11-28T13:02:55.909Z,53.60
2022-11-28T13:05:42.843Z,53.60
2022-11-28T13:08:26.430Z,53.70
2022-11-28T13:11:03.934Z,53.70
2022-11-28T13:13:36.595Z,53.90
2022-11-28T13:16:10.273Z,53.90
2022-11-28T13:18:43.508Z,53.70
2022-11-28T13:21:22.314Z,53.80
2022-11-28T13:23:55.186Z,53.70
2022-11-28T13:26:36.322Z,53.70
2022-11-28T13:29:09.854Z,53.70
2022-11-28T13:31:42.579Z,53.80
2022-11-28T13:34:15.051Z,53.80
2022-11-28T13:39:44.236Z,53.90
2022-11-28T13:45:25.180Z,53.70
2022-11-28T13:47:58.478Z,53.80
2022-11-28T13:50:38.275Z,53.80
2022-11-28T13:53:22.644Z,53.70
2022-11-28T13:55:51.033Z,53.60
2022-11-28T13:58:24.760Z,53.80
2022-11-28T14:01:07.623Z,53.90
2022-11-28T14:03:44.104Z,53.60
2022-11-28T14:06:15.732Z,53.70
2022-11-28T14:08:44.629Z,53.70
2022-11-28T14:11:35.983Z,53.70
2022-11-28T14:14:29.983Z,53.60
2022-11-28T14:17:12.970Z,53.60
2022-11-28T14:19:55.860Z,53.80
2022-11-28T14:22:46.715Z,53.60
2022-11-28T14:25:20.114Z,53.60
2022-11-28T14:27:50.595Z,53.60
2022-11-28T14:30:25.614Z,53.50
2022-11-28T14:32:56.674Z,53.70
2022-11-28T14:35:58.860Z,53.40
2022-11-28T14:38:42.877Z,53.40
2022-11-28T14:41:11.301Z,53.30
2022-11-28T14:43:39.382Z,53.40
2022-11-28T14:46:28.569Z,53.30
2022-11-28T14:49:22.150Z,53.30
2022-11-28T14:55:17.817Z,53.30
2022-11-28T14:57:55.144Z,53.30
2022-11-28T15:00:25.376Z,53.30
2022-11-28T15:03:06.662Z,53.40
2022-11-28T15:05:39.527Z,53.30
2022-11-28T15:08:48.870Z,53.30
2022-11-28T15:11:39.153Z,53.20
2022-11-28T15:14:15.007Z,53.40
2022-11-28T15:16:49.829Z,53.80
2022-11-28T15:19:23.406Z,53.50
2022-11-28T15:21:51.866Z,53.50
2022-11-28T15:24:27.646Z,53.50
2022-11-28T15:26:58.134Z,53.40
2022-11-28T15:29:27.253Z,53.50
2022-11-28T15:31:56.631Z,54.00
2022-11-28T15:34:28.999Z,53.40
2022-11-28T15:36:57.739Z,53.30
2022-11-28T15:39:28.952Z,53.20
2022-11-28T15:41:58.497Z,53.20
2022-11-28T15:44:25.698Z,53.20
2022-11-28T15:46:52.603Z,53.20
2022-11-28T15:49:27.930Z,53.30
2022-11-28T15:51:55.825Z,53.30
2022-11-28T15:54:37.446Z,53.30
2022-11-28T15:57:06.405Z,53.20
2022-11-28T15:59:33.654Z,53.50
2022-11-28T16:02:04.264Z,53.30
2022-11-28T16:04:31.518Z,53.40
2022-11-28T16:07:00.844Z,53.40
2022-11-28T16:09:31.180Z,53.40
2022-11-28T16:11:58.259Z,53.50
2022-11-28T16:14:28.997Z,53.40
2022-11-28T16:16:57.600Z,53.40
2022-11-28T16:19:26.639Z,53.50
2022-11-28T16:21:56.827Z,53.40
2022-11-28T16:24:26.923Z,53.40
2022-11-28T16:26:56.190Z,53.50
2022-11-28T16:29:23.980Z,54.30
2022-11-28T16:31:52.155Z,54.30
2022-11-28T16:34:45.555Z,54.30
2022-11-28T16:37:13.082Z,53.40
2022-11-28T16:39:40.231Z,54.40
2022-11-28T16:42:14.662Z,54.40
2022-11-28T16:44:45.178Z,54.40
2022-11-28T16:47:30.058Z,54.40
2022-11-28T16:50:16.326Z,54.40
2022-11-28T16:52:50.497Z,54.50
2022-11-28T16:55:43.065Z,54.40
2022-11-28T16:58:12.442Z,54.40
2022-11-28T17:00:40.841Z,54.50
2022-11-28T17:03:39.631Z,54.60
2022-11-28T17:06:11.099Z,54.50
2022-11-28T17:08:37.901Z,54.60
2022-11-28T17:11:39.282Z,54.60
2022-11-28T17:14:13.086Z,53.70
2022-11-28T17:16:43.915Z,54.60
2022-11-28T17:19:13.078Z,54.60
2022-11-28T17:21:42.817Z,54.70
2022-11-28T17:24:15.985Z,54.50
2022-11-28T17:26:42.820Z,54.50
2022-11-28T17:29:11.311Z,54.50
2022-11-28T17:31:38.416Z,54.50
2022-11-28T17:34:05.226Z,54.50
2022-11-28T17:36:33.337Z,54.60
2022-11-28T17:39:05.058Z,54.50
2022-11-28T17:41:32.139Z,54.50
2022-11-28T17:43:58.885Z,54.50
2022-11-28T17:46:25.680Z,54.60
2022-11-28T17:48:52.411Z,54.60
2022-11-28T17:51:19.200Z,54.50
2022-11-28T17:53:47.307Z,54.50
2022-11-28T17:56:14.066Z,54.60
2022-11-28T17:58:40.887Z,54.60
2022-11-28T18:01:10.156Z,54.50
2022-11-28T18:03:36.932Z,54.50
2022-11-28T18:06:03.884Z,54.60
2022-11-28T18:08:30.854Z,54.50
2022-11-28T18:11:03.991Z,54.50
2022-11-28T18:13:30.890Z,54.50
2022-11-28T18:15:57.613Z,53.80
2022-11-28T18:18:24.456Z,54.50
2022-11-28T18:20:51.261Z,54.50
2022-11-28T18:23:18.021Z,54.60
2022-11-28T18:25:45.192Z,54.50
2022-11-28T18:28:18.885Z,54.40
2022-11-28T18:30:46.901Z,54.40
2022-11-28T18:33:15.308Z,54.50
2022-11-28T18:35:42.264Z,54.40
2022-11-28T18:38:09.233Z,54.40
2022-11-28T18:40:36.566Z,54.40
2022-11-28T18:43:03.511Z,54.40
2022-11-28T18:45:32.486Z,54.50
2022-11-28T18:48:00.528Z,54.50
2022-11-28T18:50:27.475Z,54.40
2022-11-28T18:52:54.215Z,54.40
2022-11-28T18:55:20.975Z,54.40
2022-11-28T18:57:47.719Z,54.50
2022-11-28T19:00:15.476Z,54.50
2022-11-28T19:02:43.732Z,54.50
2022-11-28T19:05:10.491Z,54.50
2022-11-28T19:07:37.360Z,54.50
2022-11-28T19:10:04.982Z,54.50
2022-11-28T19:12:31.730Z,54.50
2022-11-28T19:15:02.155Z,54.50
2022-11-28T19:17:29.656Z,54.50
2022-11-28T19:19:57.743Z,54.50
2022-11-28T19:22:24.567Z,54.50
2022-11-28T19:24:51.331Z,54.40
2022-11-28T19:27:20.114Z,55.20
2022-11-28T19:29:47.204Z,55.90
2022-11-28T19:32:14.070Z,55.70
2022-11-28T19:34:41.029Z,55.30
2022-11-28T19:37:09.099Z,54.20
2022-11-28T19:39:35.985Z,54.90
2022-11-28T19:42:02.782Z,54.80
2022-11-28T19:44:29.604Z,54.70
2022-11-28T19:46:56.481Z,54.70
2022-11-28T19:49:24.230Z,54.80
2022-11-28T19:51:52.168Z,54.60
2022-11-28T19:54:20.794Z,54.60
2022-11-28T19:56:48.225Z,54.60
2022-11-28T19:59:15.403Z,54.60
2022-11-28T20:01:42.515Z,54.60
2022-11-28T20:04:09.864Z,54.70
2022-11-28T20:06:36.655Z,54.70
2022-11-28T20:09:05.656Z,54.70
2022-11-28T20:11:35.815Z,54.70
2022-11-28T20:14:05.118Z,54.60
2022-11-28T20:16:33.884Z,54.60
2022-11-28T20:19:01.456Z,54.50
2022-11-28T20:21:29.099Z,54.50
2022-11-28T20:23:57.648Z,54.60
2022-11-28T20:26:25.523Z,54.60
2022-11-28T20:28:54.729Z,54.60
2022-11-28T20:31:23.055Z,54.50
2022-11-28T20:33:50.893Z,54.50
2022-11-28T20:36:19.785Z,54.50
2022-11-28T20:38:47.176Z,54.50
2022-11-28T20:41:15.834Z,54.50
2022-11-28T20:43:43.035Z,54.60
2022-11-28T20:46:13.475Z,54.60
2022-11-28T20:48:40.762Z,54.60
2022-11-28T20:51:08.727Z,54.60
2022-11-28T20:53:35.562Z,54.60
2022-11-28T20:56:04.136Z,54.50
2022-11-28T20:58:31.560Z,54.50
2022-11-28T21:00:58.418Z,54.50
2022-11-28T21:03:26.930Z,54.50
2022-11-28T21:05:59.403Z,54.50
2022-11-28T21:08:27.723Z,54.70
2022-11-28T21:10:54.463Z,54.70
2022-11-28T21:13:21.265Z,54.50
2022-11-28T21:15:48.041Z,54.70
2022-11-28T21:18:15.706Z,54.50
2022-11-28T21:20:45.679Z,55.00
2022-11-28T21:23:14.339Z,56.00
2022-11-28T21:25:42.797Z,55.50
2022-11-28T21:28:10.514Z,55.20
2022-11-28T21:30:40.798Z,54.90
2022-11-28T21:33:07.734Z,54.70
2022-11-28T21:35:34.536Z,54.60
2022-11-28T21:38:02.731Z,54.50
2022-11-28T21:40:29.782Z,54.50
2022-11-28T21:42:56.981Z,54.30
2022-11-28T21:45:23.805Z,54.50
2022-11-28T21:47:50.885Z,54.20
2022-11-28T21:50:17.945Z,54.20
2022-11-28T21:52:44.712Z,54.10
2022-11-28T21:55:12.865Z,54.10
2022-11-28T21:57:39.654Z,54.40
2022-11-28T22:00:07.959Z,54.20
2022-11-28T22:02:35.229Z,54.50
2022-11-28T22:05:02.036Z,54.10
2022-11-28T22:07:28.886Z,54.10
2022-11-28T22:09:55.726Z,54.10
2022-11-28T22:12:23.815Z,54.10
2022-11-28T22:14:50.668Z,54.00
2022-11-28T22:17:17.637Z,54.00
2022-11-28T22:19:44.388Z,53.90
2022-11-28T22:22:11.223Z,53.90
2022-11-28T22:24:38.072Z,54.10
2022-11-28T22:27:04.867Z,53.90
2022-11-28T22:29:33.035Z,53.90
2022-11-28T22:31:59.864Z,54.00
2022-11-28T22:34:26.736Z,54.00
2022-11-28T22:36:53.487Z,53.90
2022-11-28T22:39:20.338Z,54.00
2022-11-28T22:41:47.161Z,54.00
2022-11-28T22:44:13.889Z,54.00
2022-11-28T22:46:42.043Z,54.00
2022-11-28T22:49:10.233Z,54.00
2022-11-28T22:51:37.651Z,54.10
2022-11-28T22:54:04.725Z,54.00
2022-11-28T22:56:33.628Z,54.00
2022-11-28T22:59:00.674Z,54.00
2022-11-28T23:01:29.856Z,54.00
2022-11-28T23:03:58.617Z,54.00
2022-11-28T23:06:27.304Z,54.00
2022-11-28T23:08:54.988Z,54.10
2022-11-28T23:11:24.011Z,54.10
2022-11-28T23:13:51.419Z,54.10
2022-11-28T23:16:20.272Z,54.10
2022-11-28T23:18:49.314Z,54.10
2022-11-28T23:21:19.151Z,54.10
2022-11-28T23:23:46.193Z,54.30
2022-11-28T23:26:15.682Z,54.10
2022-11-28T23:28:42.488Z,54.30
2022-11-28T23:31:11.276Z,54.20
2022-11-28T23:33:38.595Z,54.10
2022-11-28T23:36:14.361Z,54.20
2022-11-28T23:38:43.241Z,54.10
2022-11-28T23:41:10.302Z,54.40
2022-11-28T23:43:37.298Z,54.20
2022-11-28T23:46:04.890Z,54.20
2022-11-28T23:48:31.809Z,54.10
2022-11-28T23:50:58.699Z,54.20
2022-11-28T23:53:25.925Z,54.30
2022-11-28T23:55:54.063Z,54.20
2022-11-28T23:58:20.889Z,54.20
